Latest Weather Observations for Wattamolla

IDN60901

Issued at 9:11 am EDT Thursday 23 March 2017 (issued every 10 minutes, with the page automatically refreshed every 10 minutes)

About weather observations | Map of Sydney area stations | Latest observations for Sydney area | Other Formats
Station Details ID: 066208 Name: WATTAMOLLA AWS Lat: -34.14 Lon: 151.12 Height: 44.0 m
Data from the previous 72 hours. | See also: Recent months for locations in New South Wales
Date/Time
EDT
Temp
°C
App
Temp
°C
Dew
Point
°C
Rel
Hum
%
Delta-T
°C
Wind Press
QNH
hPa
Press
MSL
hPa
Rain since
9am
mm
Dir  Spd
km/h
Gust
km/h
Spd
kts
Gust
kts
23/09:00am - - - - - S 52 61 28 33 - - -
23/08:30am - - - - - S 56 63 30 34 - - -
23/08:00am - - - - - S 52 61 28 33 - - -
23/07:30am - - - - - S 54 61 29 33 - - -
23/07:00am - - - - - S 54 61 29 33 - - -
23/06:30am - - - - - S 54 61 29 33 - - -
23/06:00am - - - - - S 56 61 30 33 - - -
23/05:30am - - - - - S 56 63 30 34 - - -
23/05:00am - - - - - S 54 59 29 32 - - -
23/04:30am - - - - - S 56 61 30 33 - - -
23/04:00am - - - - - S 54 65 29 35 - - -
23/03:30am - - - - - S 52 59 28 32 - - -
23/03:00am - - - - - S 52 59 28 32 - - -
23/02:30am - - - - - S 57 63 31 34 - - -
23/02:00am - - - - - S 54 61 29 33 - - -
23/01:30am - - - - - S 57 70 31 38 - - -
23/01:00am - - - - - S 56 65 30 35 - - -
23/12:30am - - - - - S 48 59 26 32 - - -
23/12:19am - - - - - S 28 54 15 29 - - -
23/12:00am - - - - - S 28 41 15 22 - - -
 
Date/Time
EDT
Temp
°C
App
Temp
°C
Dew
Point
°C
Rel
Hum
%
Delta-T
°C
Wind Press
QNH
hPa
Press
MSL
hPa
Rain since
9am
mm
Dir  Spd
km/h
Gust
km/h
Spd
kts
Gust
kts
22/11:52pm - - - - - S 32 50 17 27 - - -
22/11:30pm - - - - - S 35 48 19 26 - - -
22/11:00pm - - - - - S 39 54 21 29 - - -
22/10:30pm - - - - - S 50 57 27 31 - - -
22/10:00pm - - - - - S 46 56 25 30 - - -
22/09:30pm - - - - - S 44 54 24 29 - - -
22/09:00pm - - - - - S 43 52 23 28 - - -
22/08:36pm - - - - - S 26 50 14 27 - - -
22/08:30pm - - - - - S 19 26 10 14 - - -
22/08:00pm - - - - - WSW 13 17 7 9 - - -
22/07:30pm - - - - - WSW 13 15 7 8 - - -
22/07:00pm - - - - - W 17 20 9 11 - - -
22/06:30pm - - - - - WNW 15 26 8 14 - - -
22/06:00pm - - - - - N 13 20 7 11 - - -
22/05:30pm - - - - - SSE 22 30 12 16 - - -
22/05:25pm - - - - - SSE 20 33 11 18 - - -
22/05:05pm - - - - - SSW 39 61 21 33 - - -
22/05:00pm - - - - - SW 32 61 17 33 - - -
22/04:57pm - - - - - SW 24 61 13 33 - - -
22/04:30pm - - - - - NNW 7 9 4 5 - - -
22/04:00pm - - - - - SE 9 13 5 7 - - -
22/03:30pm - - - - - ESE 9 11 5 6 - - -
22/03:00pm - - - - - ESE 9 13 5 7 - - -
22/02:30pm - - - - - ESE 9 13 5 7 - - -
22/02:00pm - - - - - ESE 9 11 5 6 - - -
22/01:30pm - - - - - E 7 11 4 6 - - -
22/01:00pm - - - - - ENE 6 9 3 5 - - -
22/12:30pm - - - - - ESE 7 11 4 6 - - -
22/12:00pm - - - - - NW 11 17 6 9 - - -
22/11:30am - - - - - NNW 7 11 4 6 - - -
22/11:00am - - - - - WNW 7 9 4 5 - - -
22/10:30am - - - - - NW 6 9 3 5 - - -
22/10:00am - - - - - NW 7 11 4 6 - - -
22/09:30am - - - - - WNW 7 9 4 5 - - -
22/09:00am - - - - - NW 13 17 7 9 - - -
22/08:30am - - - - - NW 17 20 9 11 - - -
22/08:00am - - - - - NW 17 20 9 11 - - -
22/07:30am - - - - - NW 17 20 9 11 - - -
22/07:00am - - - - - NNW 15 20 8 11 - - -
22/06:30am - - - - - N 11 17 6 9 - - -
22/06:00am - - - - - N 9 13 5 7 - - -
22/05:30am - - - - - WNW 13 24 7 13 - - -
22/05:00am - - - - - WNW 26 33 14 18 - - -
22/04:30am - - - - - NW 19 26 10 14 - - -
22/04:00am - - - - - WNW 20 33 11 18 - - -
22/03:30am - - - - - WNW 24 33 13 18 - - -
22/03:00am - - - - - WNW 26 37 14 20 - - -
22/02:30am - - - - - NW 26 37 14 20 - - -
22/02:00am - - - - - NW 26 37 14 20 - - -
22/01:30am - - - - - NW 24 37 13 20 - - -
22/01:00am - - - - - NW 20 28 11 15 - - -
22/12:30am - - - - - NW 15 22 8 12 - - -
22/12:00am - - - - - NW 11 19 6 10 - - -
 
Date/Time
EDT
Temp
°C
App
Temp
°C
Dew
Point
°C
Rel
Hum
%
Delta-T
°C
Wind Press
QNH
hPa
Press
MSL
hPa
Rain since
9am
mm
Dir  Spd
km/h
Gust
km/h
Spd
kts
Gust
kts
21/11:30pm - - - - - NW 17 28 9 15 - - -
21/11:00pm - - - - - NNW 15 22 8 12 - - -
21/10:30pm - - - - - NNW 15 19 8 10 - - -
21/10:00pm - - - - - NNW 17 20 9 11 - - -
21/09:30pm - - - - - NNW 15 19 8 10 - - -
21/09:00pm - - - - - N 17 22 9 12 - - -
21/08:30pm - - - - - N 17 20 9 11 - - -
21/08:00pm - - - - - N 15 22 8 12 - - -
21/07:30pm - - - - - N 15 19 8 10 - - -
21/07:00pm - - - - - NNW 7 9 4 5 - - -
21/06:30pm - - - - - W 6 7 3 4 - - -
21/06:00pm - - - - - NNE 4 11 2 6 - - -
21/05:30pm - - - - - N 7 11 4 6 - - -
21/05:00pm - - - - - N 7 9 4 5 - - -
21/04:30pm - - - - - N 11 15 6 8 - - -
21/04:00pm - - - - - NE 11 17 6 9 - - -
21/03:30pm - - - - - NE 11 17 6 9 - - -
21/03:00pm - - - - - NE 15 22 8 12 - - -
21/02:30pm - - - - - NE 15 19 8 10 - - -
21/02:00pm - - - - - NE 17 28 9 15 - - -
21/01:30pm - - - - - NE 20 28 11 15 - - -
21/01:00pm - - - - - NE 19 28 10 15 - - -
21/12:30pm - - - - - NE 19 26 10 14 - - -
21/12:00pm - - - - - NE 17 20 9 11 - - -
21/11:30am - - - - - NE 17 20 9 11 - - -
21/11:00am - - - - - ENE 11 15 6 8 - - -
21/10:30am - - - - - NNE 13 17 7 9 - - -
21/10:00am - - - - - N 13 17 7 9 - - -
21/09:30am - - - - - N 11 15 6 8 - - -
21/09:00am - - - - - N 13 17 7 9 - - -
21/08:30am - - - - - N 15 20 8 11 - - -
21/08:00am - - - - - N 11 17 6 9 - - -
21/07:30am - - - - - NNE 13 15 7 8 - - -
21/07:00am - - - - - NNE 11 17 6 9 - - -
21/06:30am - - - - - N 13 19 7 10 - - -
21/06:00am - - - - - NNE 13 19 7 10 - - -
21/05:30am - - - - - NNE 9 13 5 7 - - -
21/05:00am - - - - - NNE 6 11 3 6 - - -
21/04:30am - - - - - N 9 11 5 6 - - -
21/04:00am - - - - - N 9 11 5 6 - - -
21/03:30am - - - - - NNE 7 11 4 6 - - -
21/03:00am - - - - - NNE 11 13 6 7 - - -
21/02:30am - - - - - N 15 20 8 11 - - -
21/02:00am - - - - - NNE 15 19 8 10 - - -
21/01:30am - - - - - N 15 19 8 10 - - -
21/01:00am - - - - - NNE 15 19 8 10 - - -
21/12:30am - - - - - N 17 22 9 12 - - -
21/12:00am - - - - - N 19 26 10 14 - - -
 
Date/Time
EDT
Temp
°C
App
Temp
°C
Dew
Point
°C
Rel
Hum
%
Delta-T
°C
Wind Press
QNH
hPa
Press
MSL
hPa
Rain since
9am
mm
Dir  Spd
km/h
Gust
km/h
Spd
kts
Gust
kts
20/11:30pm - - - - - N 13 19 7 10 - - -
20/11:00pm - - - - - N 15 26 8 14 - - -
20/10:30pm - - - - - NNE 15 22 8 12 - - -
20/10:00pm - - - - - NNE 19 26 10 14 - - -
20/09:30pm - - - - - NNE 17 28 9 15 - - -
20/09:00pm - - - - - N 20 30 11 16 - - -
20/08:30pm - - - - - NNE 24 35 13 19 - - -
20/08:00pm - - - - - NNE 20 30 11 16 - - -
20/07:30pm - - - - - NNE 28 41 15 22 - - -
20/07:00pm - - - - - NNE 26 33 14 18 - - -
20/06:30pm - - - - - NNE 24 37 13 20 - - -
20/06:00pm - - - - - NNE 19 30 10 16 - - -
20/05:30pm - - - - - NNE 20 33 11 18 - - -
20/05:00pm - - - - - NNE 24 35 13 19 - - -
20/04:30pm - - - - - NNE 22 35 12 19 - - -
20/04:00pm - - - - - NE 20 30 11 16 - - -
20/03:30pm - - - - - NE 20 30 11 16 - - -
20/03:00pm - - - - - NE 20 33 11 18 - - -
20/02:30pm - - - - - NNE 20 33 11 18 - - -
20/02:00pm - - - - - NNE 22 35 12 19 - - -
20/01:30pm - - - - - NE 22 32 12 17 - - -
20/01:00pm - - - - - NE 24 33 13 18 - - -
20/12:30pm - - - - - NE 22 33 12 18 - - -
20/12:00pm - - - - - NNE 22 35 12 19 - - -
20/11:30am - - - - - NNE 20 30 11 16 - - -
20/11:00am - - - - - NE 19 28 10 15 - - -
20/10:30am - - - - - NNE 19 33 10 18 - - -
20/10:00am - - - - - NNE 19 26 10 14 - - -
20/09:30am - - - - - NNE 19 28 10 15 - - -

Latest Capital City Observations: Canberra | Sydney | Melbourne | Brisbane | Adelaide | Perth | Hobart | Darwin

Other Formats:

Comma delimited format used in spreadsheet applications
http://www.bom.gov.au/fwo/IDN60901/IDN60901.95752.axf

JavaScript Object Notation format (JSON) in row-major order
http://www.bom.gov.au/fwo/IDN60901/IDN60901.95752.json